Time;durP1;ratioP1;P1;durP2;ratioP2;P2;SDS_P1;SDS_P2;PMS_P1;PMS_P2;Temp;Humidity;BMP_temperature;BMP_pressure;BME280_temperature;BME280_humidity;BME280_pressure;Samples;Min_cycle;Max_cycle;Signal;HPM_P1;HPM_P2
2021/09/02 00:00:31;;;;;;;;;;;;;;;16.50;75.81;102827.34;5076905;28;19908;-35
2021/09/02 00:02:56;;;;;;;;;;;;;;;16.49;76.17;102831.94;5076322;28;19987;-35
2021/09/02 00:05:22;;;;;;;;;;;;;;;16.47;75.87;102826.69;5076296;28;19909;-35
2021/09/02 00:07:47;;;;;;;;;;;;;;;16.47;75.86;102826.69;5076354;28;19927;-35
2021/09/02 00:10:12;;;;;;;;;;;;;;;16.46;76.13;102827.78;5076012;28;19912;-36
2021/09/02 00:12:37;;;;;;;;;;;;;;;16.45;76.55;102836.19;5075974;28;19999;-35
2021/09/02 00:15:03;;;;;;;;;;;;;;;16.45;76.15;102825.28;5076111;28;20302;-36
2021/09/02 00:17:28;;;;;;;;;;;;;;;16.46;76.21;102824.19;5076419;28;20301;-35
2021/09/02 00:19:54;;;;;;;;;;;;;;;16.46;76.27;102821.47;5075427;28;19915;-35
2021/09/02 00:22:20;;;;;;;;;;;;;;;16.45;76.59;102828.00;5076565;28;19933;-35
2021/09/02 00:24:45;;;;;;;;;;;;;;;16.45;76.65;102819.81;5075659;28;19944;-35
2021/09/02 00:27:10;;;;;;;;;;;;;;;16.45;76.59;102822.53;5076482;28;19927;-35
2021/09/02 00:29:35;;;;;;;;;;;;;;;16.44;76.14;102821.66;5075856;28;19908;-35
2021/09/02 00:32:00;;;;;;;;;;;;;;;16.43;76.68;102820.00;5076347;28;19915;-35
2021/09/02 00:34:26;;;;;;;;;;;;;;;16.44;76.63;102818.13;5075807;28;20401;-35
2021/09/02 00:36:51;;;;;;;;;;;;;;;16.43;76.49;102810.97;5075716;28;19978;-36
2021/09/02 00:39:16;;;;;;;;;;;;;;;16.41;77.08;102810.38;5075699;28;19950;-35
2021/09/02 00:41:41;;;;;;;;;;;;;;;16.32;77.11;102795.34;5075801;28;19956;-35
2021/09/02 00:44:06;;;;;;;;;;;;;;;16.35;76.96;102806.66;5075388;28;19939;-35
2021/09/02 00:46:32;;;;;;;;;;;;;;;16.35;76.94;102803.09;5075403;28;19912;-35
2021/09/02 00:48:57;;;;;;;;;;;;;;;16.34;76.43;102810.41;5075602;28;19909;-35
2021/09/02 00:51:22;;;;;;;;;;;;;;;16.34;76.88;102799.50;5075705;28;19912;-36
2021/09/02 00:53:49;;;;;;;;;;;;;;;16.35;76.70;102809.38;5075597;28;19970;-35
2021/09/02 00:56:14;;;;;;;;;;;;;;;16.35;77.13;102805.81;5075690;28;19908;-35
2021/09/02 00:58:43;;;;;;;;;;;;;;;16.35;76.90;102806.66;5075709;28;19908;-35
2021/09/02 01:01:10;;;;;;;;;;;;;;;16.35;77.28;102805.81;5075850;28;19991;-35
2021/09/02 01:03:35;;;;;;;;;;;;;;;16.33;76.57;102802.47;5075222;28;19913;-35
2021/09/02 01:06:01;;;;;;;;;;;;;;;16.30;76.54;102797.44;5075597;28;19961;-35
2021/09/02 01:08:26;;;;;;;;;;;;;;;16.30;76.71;102808.34;5074863;28;19912;-35
2021/09/02 01:10:51;;;;;;;;;;;;;;;16.28;76.54;102805.03;5075439;28;19912;-36
2021/09/02 01:13:18;;;;;;;;;;;;;;;16.27;76.67;102798.72;5075111;28;20245;-35
2021/09/02 01:15:43;;;;;;;;;;;;;;;16.25;76.82;102800.00;5074752;28;19954;-35
2021/09/02 01:18:10;;;;;;;;;;;;;;;16.25;77.18;102800.00;5075015;28;19908;-35
2021/09/02 01:20:35;;;;;;;;;;;;;;;16.23;77.28;102806.50;5075868;28;20011;-35
2021/09/02 01:23:02;;;;;;;;;;;;;;;16.21;77.62;102803.19;5075245;28;19914;-35
2021/09/02 01:25:42;;;;;;;;;;;;;;;16.19;77.28;102797.09;5075436;28;20324;-36
2021/09/02 01:28:08;;;;;;;;;;;;;;;16.18;77.37;102797.31;5074558;28;19915;-35
2021/09/02 01:30:34;;;;;;;;;;;;;;;16.17;77.16;102799.22;5074397;28;19912;-35
2021/09/02 01:33:00;;;;;;;;;;;;;;;16.17;77.29;102795.66;5074683;28;19915;-36
2021/09/02 01:35:26;;;;;;;;;;;;;;;16.17;77.23;102804.69;5074661;28;20256;-35
2021/09/02 01:37:55;;;;;;;;;;;;;;;16.17;77.33;102804.69;5075385;28;19996;-35
2021/09/02 01:40:22;;;;;;;;;;;;;;;16.18;77.43;102805.50;5074272;28;20333;-35
2021/09/02 01:42:48;;;;;;;;;;;;;;;16.16;77.24;102803.00;5074583;28;19915;-35
2021/09/02 01:45:13;;;;;;;;;;;;;;;16.16;78.01;102803.00;5074455;28;19908;-35
2021/09/02 01:47:39;;;;;;;;;;;;;;;16.16;77.77;102808.47;5074475;28;19908;-35
2021/09/02 01:50:07;;;;;;;;;;;;;;;16.15;77.71;102805.94;5074379;28;19920;-35
2021/09/02 01:52:33;;;;;;;;;;;;;;;16.15;77.69;102811.41;5074367;28;19912;-35
2021/09/02 01:54:58;;;;;;;;;;;;;;;16.13;77.92;102802.59;5074198;28;19908;-35
2021/09/02 01:57:23;;;;;;;;;;;;;;;16.10;78.07;102806.59;5075059;28;19908;-35
2021/09/02 01:59:48;;;;;;;;;;;;;;;16.09;77.78;102795.91;5074165;28;19966;-35
2021/09/02 02:02:14;;;;;;;;;;;;;;;16.09;78.19;102795.91;5074350;28;20002;-35
2021/09/02 02:04:39;;;;;;;;;;;;;;;16.08;77.79;102792.34;5074151;28;19908;-35
2021/09/02 02:07:04;;;;;;;;;;;;;;;16.07;78.08;102796.13;5074049;28;19914;-35
2021/09/02 02:09:29;;;;;;;;;;;;;;;16.06;78.18;102799.09;5073969;28;19912;-35
2021/09/02 02:11:55;;;;;;;;;;;;;;;16.05;78.05;102792.78;5073740;28;19919;-35
2021/09/02 02:14:20;;;;;;;;;;;;;;;16.03;78.60;102794.91;5074183;28;19970;-35
2021/09/02 02:16:45;;;;;;;;;;;;;;;16.00;78.54;102791.78;5074046;28;19915;-36
2021/09/02 02:19:10;;;;;;;;;;;;;;;15.99;78.24;102790.94;5074665;28;20297;-35
2021/09/02 02:21:36;;;;;;;;;;;;;;;16.01;78.30;102785.28;5074039;28;19931;-35
2021/09/02 02:24:01;;;;;;;;;;;;;;;15.99;78.50;102782.75;5073724;28;20267;-35
2021/09/02 02:26:26;;;;;;;;;;;;;;;15.99;78.27;102796.41;5074324;28;19908;-35
2021/09/02 02:28:51;;;;;;;;;;;;;;;15.98;78.38;102786.53;5073934;28;19931;-35
2021/09/02 02:31:16;;;;;;;;;;;;;;;15.99;78.51;102790.09;5073943;28;19940;-35
2021/09/02 02:33:42;;;;;;;;;;;;;;;15.98;78.67;102793.91;5073288;28;19912;-35
2021/09/02 02:36:07;;;;;;;;;;;;;;;15.97;78.23;102798.53;5073742;28;19908;-35
2021/09/02 02:38:32;;;;;;;;;;;;;;;15.95;78.56;102789.69;5073550;28;19920;-35
2021/09/02 02:40:57;;;;;;;;;;;;;;;15.93;78.54;102787.19;5073540;28;19995;-35
2021/09/02 02:43:23;;;;;;;;;;;;;;;15.91;79.05;102788.50;5073234;28;19966;-35
2021/09/02 02:45:48;;;;;;;;;;;;;;;15.91;79.22;102791.22;5073293;28;19908;-35
2021/09/02 02:48:13;;;;;;;;;;;;;;;15.89;79.85;102787.84;5073219;28;19915;-35
2021/09/02 02:50:38;;;;;;;;;;;;;;;15.87;78.99;102789.97;5073200;28;19909;-35
2021/09/02 02:53:03;;;;;;;;;;;;;;;15.87;79.29;102787.25;5073436;28;19915;-35
2021/09/02 02:55:29;;;;;;;;;;;;;;;15.89;79.24;102793.31;5073328;28;19919;-35
2021/09/02 02:57:54;;;;;;;;;;;;;;;15.89;79.22;102790.59;5073277;28;19909;-35
2021/09/02 03:00:19;;;;;;;;;;;;;;;15.89;79.19;102790.59;5073323;28;19908;-35
2021/09/02 03:02:45;;;;;;;;;;;;;;;15.88;79.40;102784.28;5073358;28;20194;-35
2021/09/02 03:05:10;;;;;;;;;;;;;;;15.87;79.04;102782.63;5073292;28;20385;-35
2021/09/02 03:07:35;;;;;;;;;;;;;;;15.89;79.21;102779.66;5072939;28;19912;-35
2021/09/02 03:10:01;;;;;;;;;;;;;;;15.83;82.23;102781.38;5073293;28;19908;-35
2021/09/02 03:12:26;;;;;;;;;;;;;;;15.77;80.20;102770.53;5074318;28;20233;-35
2021/09/02 03:14:52;;;;;;;;;;;;;;;15.74;81.00;102781.88;5072970;28;19938;-36
2021/09/02 03:17:17;;;;;;;;;;;;;;;15.73;79.89;102785.66;5072827;28;19912;-36
2021/09/02 03:19:42;;;;;;;;;;;;;;;15.71;80.50;102780.41;5073181;28;19965;-35
2021/09/02 03:22:07;;;;;;;;;;;;;;;15.70;79.89;102790.47;5073876;28;20007;-35
2021/09/02 03:24:33;;;;;;;;;;;;;;;15.72;80.05;102786.72;5072818;28;19908;-35
2021/09/02 03:26:58;;;;;;;;;;;;;;;15.72;79.72;102779.38;5073844;28;20240;-35
2021/09/02 03:29:23;;;;;;;;;;;;;;;15.75;79.95;102789.81;5073496;28;20264;-35
2021/09/02 03:31:48;;;;;;;;;;;;;;;15.74;79.87;102781.88;5073115;28;20447;-35
2021/09/02 03:34:13;;;;;;;;;;;;;;;15.75;79.61;102778.06;5073187;28;20003;-35
2021/09/02 03:36:41;;;;;;;;;;;;;;;15.76;79.66;102777.00;5073028;28;20279;-35
2021/09/02 03:39:06;;;;;;;;;;;;;;;15.75;79.73;102783.53;5073171;28;19943;-35
2021/09/02 03:41:31;;;;;;;;;;;;;;;15.76;79.54;102775.13;5072719;28;20276;-35
2021/09/02 03:43:56;;;;;;;;;;;;;;;15.75;79.64;102772.63;5072902;28;19915;-35
2021/09/02 03:46:21;;;;;;;;;;;;;;;15.74;79.63;102776.41;5072846;28;20356;-35
2021/09/02 03:48:47;;;;;;;;;;;;;;;15.75;79.39;102769.88;5072853;28;19908;-35
2021/09/02 03:51:12;;;;;;;;;;;;;;;15.73;79.28;102764.66;5073148;28;19912;-35
2021/09/02 03:53:37;;;;;;;;;;;;;;;15.69;79.29;102769.72;5072545;28;19913;-35
2021/09/02 03:56:02;;;;;;;;;;;;;;;15.69;79.36;102772.44;5075939;28;19913;-35
2021/09/02 03:58:28;;;;;;;;;;;;;;;15.69;78.92;102766.97;5076183;28;20022;-35
2021/09/02 04:00:53;;;;;;;;;;;;;;;15.69;78.98;102768.88;5076195;28;19947;-35
2021/09/02 04:03:18;;;;;;;;;;;;;;;15.68;78.97;102768.06;5076060;28;19969;-35
2021/09/02 04:05:43;;;;;;;;;;;;;;;15.69;79.00;102768.88;5076148;28;19912;-35
2021/09/02 04:08:08;;;;;;;;;;;;;;;15.66;79.18;102758.41;5076155;28;19916;-35
2021/09/02 04:10:34;;;;;;;;;;;;;;;15.64;79.14;102760.53;5076645;28;19920;-35
2021/09/02 04:12:59;;;;;;;;;;;;;;;15.64;78.91;102764.06;5076137;28;19912;-35
2021/09/02 04:15:25;;;;;;;;;;;;;;;15.65;79.09;102765.75;5076211;28;20234;-35
2021/09/02 04:17:50;;;;;;;;;;;;;;;15.65;79.02;102760.28;5076203;28;20052;-35
2021/09/02 04:20:15;;;;;;;;;;;;;;;15.63;78.79;102759.69;5076152;28;19915;-35
2021/09/02 04:22:40;;;;;;;;;;;;;;;15.62;78.83;102752.53;5076466;28;19942;-35
2021/09/02 04:25:06;;;;;;;;;;;;;;;15.63;78.74;102754.22;5077056;28;19924;-35
2021/09/02 04:27:31;;;;;;;;;;;;;;;15.63;78.94;102750.63;5076481;28;20257;-35
2021/09/02 04:29:56;;;;;;;;;;;;;;;15.61;78.55;102750.00;5075697;28;19909;-36
2021/09/02 04:32:22;;;;;;;;;;;;;;;15.60;78.82;102753.78;5076279;28;19958;-35
2021/09/02 04:34:47;;;;;;;;;;;;;;;15.60;78.80;102760.06;5076636;28;19966;-35
2021/09/02 04:37:12;;;;;;;;;;;;;;;15.58;78.44;102762.19;5076531;28;20003;-35
2021/09/02 04:39:37;;;;;;;;;;;;;;;15.55;78.62;102761.78;5075485;28;20356;-36
2021/09/02 04:42:02;;;;;;;;;;;;;;;15.54;78.40;102760.13;5075521;28;19908;-35
2021/09/02 04:44:28;;;;;;;;;;;;;;;15.54;78.45;102758.22;5076044;28;20008;-35
2021/09/02 04:46:53;;;;;;;;;;;;;;;15.54;78.33;102762.84;5075388;28;20272;-35
2021/09/02 04:49:18;;;;;;;;;;;;;;;15.54;78.36;102757.41;5075544;28;19962;-36
2021/09/02 04:51:43;;;;;;;;;;;;;;;15.52;78.52;102762.22;5075298;28;19912;-35
2021/09/02 04:54:09;;;;;;;;;;;;;;;15.50;78.54;102765.16;5075521;28;19908;-35
2021/09/02 04:56:34;;;;;;;;;;;;;;;15.52;78.28;102760.34;5075924;28;19908;-35
2021/09/02 04:58:59;;;;;;;;;;;;;;;15.54;78.38;102766.41;5075734;28;20000;-35
2021/09/02 05:01:24;;;;;;;;;;;;;;;15.54;78.52;102768.31;5075177;28;20382;-35
2021/09/02 05:03:50;;;;;;;;;;;;;;;15.50;78.88;102769.78;5075622;28;19915;-35
2021/09/02 05:06:15;;;;;;;;;;;;;;;15.47;78.44;102768.34;5075134;28;19908;-35
2021/09/02 05:08:40;;;;;;;;;;;;;;;15.46;78.37;102774.84;5075445;28;20301;-35
2021/09/02 05:11:05;;;;;;;;;;;;;;;15.44;78.74;102763.31;5075311;28;20350;-36
2021/09/02 05:13:31;;;;;;;;;;;;;;;15.43;78.78;102770.66;5074907;28;20276;-35
2021/09/02 05:15:56;;;;;;;;;;;;;;;15.44;78.47;102758.69;5075250;28;20336;-35
2021/09/02 05:18:21;;;;;;;;;;;;;;;15.44;78.43;102755.13;5074984;28;19931;-35
2021/09/02 05:20:46;;;;;;;;;;;;;;;15.44;78.44;102755.97;5075059;28;19990;-35
2021/09/02 05:23:12;;;;;;;;;;;;;;;15.46;78.42;102753.03;5074541;28;20002;-35
2021/09/02 05:25:37;;;;;;;;;;;;;;;15.48;78.61;102756.38;5075072;28;19908;-36
2021/09/02 05:28:02;;;;;;;;;;;;;;;15.48;78.88;102755.56;5074880;28;19912;-35
2021/09/02 05:30:27;;;;;;;;;;;;;;;15.48;79.10;102756.38;5075382;28;19912;-35
2021/09/02 05:32:52;;;;;;;;;;;;;;;15.48;78.71;102753.66;5074732;28;20351;-35
2021/09/02 05:35:19;;;;;;;;;;;;;;;15.47;79.28;102765.63;5074575;28;19909;-35
2021/09/02 05:37:44;;;;;;;;;;;;;;;15.48;79.54;102766.47;5074698;28;20255;-35
2021/09/02 05:40:10;;;;;;;;;;;;;;;15.49;79.29;102768.97;5074298;28;20006;-35
2021/09/02 05:42:35;;;;;;;;;;;;;;;15.52;79.17;102762.22;5074968;28;19909;-35
2021/09/02 05:45:00;;;;;;;;;;;;;;;15.52;81.34;102764.94;5074569;28;19908;-35
2021/09/02 05:47:25;;;;;;;;;;;;;;;15.53;79.39;102769.38;5074557;28;19908;-35
2021/09/02 05:49:51;;;;;;;;;;;;;;;15.53;80.33;102764.75;5074486;28;19917;-35
2021/09/02 05:52:16;;;;;;;;;;;;;;;15.51;80.31;102768.72;5074707;28;19914;-36
2021/09/02 05:54:41;;;;;;;;;;;;;;;15.51;80.36;102771.47;5074896;28;20319;-35
2021/09/02 05:57:07;;;;;;;;;;;;;;;15.53;79.99;102770.19;5074096;28;20352;-36
2021/09/02 05:59:32;;;;;;;;;;;;;;;15.57;80.43;102767.88;5074988;28;19919;-35
2021/09/02 06:01:57;;;;;;;;;;;;;;;15.58;80.17;102770.38;5074305;28;19916;-35
2021/09/02 06:04:23;;;;;;;;;;;;;;;15.59;81.81;102769.31;5074229;28;20335;-35
2021/09/02 06:06:48;;;;;;;;;;;;;;;15.58;81.16;102773.09;5074578;28;20007;-35
2021/09/02 06:09:13;;;;;;;;;;;;;;;15.61;80.57;102767.19;5073841;28;20352;-35
2021/09/02 06:11:38;;;;;;;;;;;;;;;15.65;80.29;102776.66;5074230;28;19955;-35
2021/09/02 06:14:03;;;;;;;;;;;;;;;15.70;81.69;102779.56;5074027;28;19947;-35
2021/09/02 06:16:29;;;;;;;;;;;;;;;15.73;81.04;102775.56;5073901;28;19912;-35
2021/09/02 06:18:54;;;;;;;;;;;;;;;15.74;81.93;102776.41;5073374;28;19958;-35
2021/09/02 06:21:19;;;;;;;;;;;;;;;15.68;82.97;102772.66;5073676;28;19939;-35
2021/09/02 06:23:44;;;;;;;;;;;;;;;15.67;82.20;102781.91;5074335;28;20331;-35
2021/09/02 06:26:10;;;;;;;;;;;;;;;15.69;81.60;102775.16;5074144;28;19915;-35
2021/09/02 06:28:35;;;;;;;;;;;;;;;15.74;81.91;102774.50;5073769;28;19908;-35
2021/09/02 06:31:01;;;;;;;;;;;;;;;15.79;81.89;102771.97;5073993;28;19991;-35
2021/09/02 06:33:26;;;;;;;;;;;;;;;15.80;83.28;102770.06;5073980;28;19915;-35
2021/09/02 06:35:51;;;;;;;;;;;;;;;15.82;82.08;102778.88;5073937;28;20048;-35
2021/09/02 06:38:16;;;;;;;;;;;;;;;15.86;82.49;102777.38;5073849;28;19909;-35
2021/09/02 06:40:42;;;;;;;;;;;;;;;15.89;82.45;102772.31;5074164;28;19912;-35
2021/09/02 06:43:07;;;;;;;;;;;;;;;15.95;82.16;102776.06;5073606;28;19955;-35
2021/09/02 06:45:32;;;;;;;;;;;;;;;15.96;82.57;102775.84;5073968;28;20011;-35
2021/09/02 06:47:58;;;;;;;;;;;;;;;15.98;81.72;102772.06;5073782;28;19961;-35
2021/09/02 06:50:23;;;;;;;;;;;;;;;16.05;81.43;102781.88;5073867;28;20281;-35
2021/09/02 06:52:48;;;;;;;;;;;;;;;16.11;81.89;102789.19;5073963;28;19908;-36
2021/09/02 06:55:13;;;;;;;;;;;;;;;16.17;81.25;102784.72;5073868;28;20006;-35
2021/09/02 06:57:39;;;;;;;;;;;;;;;16.25;81.30;102789.06;5073466;28;19912;-35
2021/09/02 07:00:05;;;;;;;;;;;;;;;16.28;81.00;102792.19;5073379;28;19915;-35
2021/09/02 07:02:30;;;;;;;;;;;;;;;16.32;81.08;102782.50;5073978;28;19909;-35
2021/09/02 07:04:55;;;;;;;;;;;;;;;16.34;80.06;102787.75;5074117;28;20006;-35
2021/09/02 07:07:20;;;;;;;;;;;;;;;16.37;80.33;102787.31;5073709;28;19908;-35
2021/09/02 07:09:46;;;;;;;;;;;;;;;16.45;80.30;102795.22;5073036;28;20249;-35
2021/09/02 07:12:11;;;;;;;;;;;;;;;16.53;79.83;102786.75;5073491;28;19912;-35
2021/09/02 07:14:36;;;;;;;;;;;;;;;16.61;79.80;102783.72;5073036;28;19912;-35
2021/09/02 07:17:01;;;;;;;;;;;;;;;16.64;79.92;102788.75;5073473;28;19913;-35
2021/09/02 07:19:27;;;;;;;;;;;;;;;16.72;80.31;102783.03;5072932;28;19919;-35
2021/09/02 07:21:53;;;;;;;;;;;;;;;16.84;79.62;102787.75;5073460;28;19919;-35
2021/09/02 07:24:18;;;;;;;;;;;;;;;16.98;79.87;102783.81;5073883;28;19908;-35
2021/09/02 07:26:43;;;;;;;;;;;;;;;17.07;77.74;102785.19;5073720;28;20382;-35
2021/09/02 07:29:09;;;;;;;;;;;;;;;17.09;78.23;102785.81;5073229;28;19908;-36
2021/09/02 07:31:35;;;;;;;;;;;;;;;17.12;78.37;102789.97;5077638;28;20372;-35
2021/09/02 07:34:00;;;;;;;;;;;;;;;17.01;76.58;102794.28;5077351;28;20275;-35
2021/09/02 07:36:25;;;;;;;;;;;;;;;16.91;77.25;102794.81;5076998;28;19909;-35
2021/09/02 07:38:50;;;;;;;;;;;;;;;16.75;75.72;102802.78;5077049;28;19908;-35
2021/09/02 07:41:16;;;;;;;;;;;;;;;16.84;76.37;102802.25;5077228;28;20297;-35
2021/09/02 07:43:42;;;;;;;;;;;;;;;16.95;75.83;102806.97;5077024;28;20230;-35
2021/09/02 07:46:07;;;;;;;;;;;;;;;17.01;76.30;102799.75;5076809;28;20056;-35
2021/09/02 07:48:32;;;;;;;;;;;;;;;17.03;74.47;102796.78;5076837;28;19954;-35
2021/09/02 07:50:58;;;;;;;;;;;;;;;17.03;75.73;102791.31;5077308;28;19931;-35
2021/09/02 07:53:23;;;;;;;;;;;;;;;16.97;75.20;102796.63;5077168;28;19913;-35
2021/09/02 07:55:48;;;;;;;;;;;;;;;16.95;75.64;102792.47;5076925;28;19917;-35
2021/09/02 07:58:13;;;;;;;;;;;;;;;16.94;75.19;102794.38;5076368;28;19915;-35
2021/09/02 08:00:39;;;;;;;;;;;;;;;16.82;73.54;102796.16;5076576;28;20013;-35
2021/09/02 08:03:04;;;;;;;;;;;;;;;16.83;73.86;102800.56;5076256;28;20302;-35
2021/09/02 08:05:29;;;;;;;;;;;;;;;16.94;75.14;102797.09;5076769;28;19954;-35
2021/09/02 08:07:55;;;;;;;;;;;;;;;17.15;75.09;102795.81;5076809;28;19999;-35
2021/09/02 08:10:20;;;;;;;;;;;;;;;17.22;73.57;102793.81;5076161;28;19909;-35
2021/09/02 08:12:47;;;;;;;;;;;;;;;17.24;72.98;102799.91;5077282;28;19912;-35
2021/09/02 08:15:12;;;;;;;;;;;;;;;17.38;73.60;102791.56;5076602;28;20003;-35
2021/09/02 08:17:37;;;;;;;;;;;;;;;17.48;71.87;102800.91;5076085;28;20034;-36
2021/09/02 08:20:03;;;;;;;;;;;;;;;17.42;71.73;102796.34;5076265;28;19923;-35
2021/09/02 08:22:28;;;;;;;;;;;;;;;17.52;72.82;102793.06;5076012;28;19915;-35
2021/09/02 08:24:54;;;;;;;;;;;;;;;17.66;72.65;102791.81;5076661;28;19997;-35
2021/09/02 08:27:20;;;;;;;;;;;;;;;17.82;71.95;102789.53;5076661;28;20003;-35
2021/09/02 08:29:45;;;;;;;;;;;;;;;17.95;71.03;102792.06;5076493;28;19909;-36
2021/09/02 08:32:12;;;;;;;;;;;;;;;18.05;71.21;102789.59;5076038;28;19916;-36
2021/09/02 08:34:37;;;;;;;;;;;;;;;18.15;70.72;102781.63;5075687;28;19908;-36
2021/09/02 08:37:02;;;;;;;;;;;;;;;18.26;69.71;102789.06;5075963;28;20371;-35
2021/09/02 08:39:27;;;;;;;;;;;;;;;18.28;70.27;102783.34;5075921;28;19916;-35
2021/09/02 08:41:53;;;;;;;;;;;;;;;18.31;71.12;102784.78;5075407;28;20419;-36
2021/09/02 08:44:18;;;;;;;;;;;;;;;18.46;70.78;102782.41;5075919;28;19954;-35
2021/09/02 08:46:43;;;;;;;;;;;;;;;18.63;68.24;102783.38;5076113;28;19915;-36
2021/09/02 08:49:10;;;;;;;;;;;;;;;18.85;70.21;102785.56;5075722;28;19908;-36
2021/09/02 08:51:36;;;;;;;;;;;;;;;19.07;70.65;102785.75;5075800;28;19915;-36
2021/09/02 08:54:02;;;;;;;;;;;;;;;19.26;67.48;102784.53;5075672;28;19958;-36
2021/09/02 08:56:27;;;;;;;;;;;;;;;19.29;66.38;102784.06;5076204;28;19916;-35
2021/09/02 08:58:53;;;;;;;;;;;;;;;19.18;65.97;102782.16;5075582;28;19915;-35
2021/09/02 09:01:18;;;;;;;;;;;;;;;18.93;66.20;102787.91;5075240;28;19908;-35
2021/09/02 09:03:50;;;;;;;;;;;;;;;18.84;65.15;102794.81;5075459;28;20027;-36
2021/09/02 09:06:26;;;;;;;;;;;;;;;19.03;66.72;102799.09;5076378;28;20162;-36
2021/09/02 09:08:52;;;;;;;;;;;;;;;19.02;66.76;102801.00;5075321;28;19912;-35
2021/09/02 09:11:22;;;;;;;;;;;;;;;19.00;66.81;102796.88;5075431;28;19912;-35
2021/09/02 09:14:02;;;;;;;;;;;;;;;18.78;66.46;102800.19;5074985;28;20007;-36
2021/09/02 09:16:46;;;;;;;;;;;;;;;18.74;67.46;102800.94;5075727;28;19916;-36
2021/09/02 09:19:31;;;;;;;;;;;;;;;18.76;67.03;102802.34;5075154;28;20022;-35
2021/09/02 09:21:57;;;;;;;;;;;;;;;18.78;66.50;102796.63;5075083;28;19908;-36
2021/09/02 09:24:22;;;;;;;;;;;;;;;18.72;66.25;102794.84;5075304;28;20340;-36
2021/09/02 09:26:48;;;;;;;;;;;;;;;18.70;65.47;102803.31;5075043;28;19947;-36
2021/09/02 09:29:17;;;;;;;;;;;;;;;18.77;66.44;102787.56;5074700;28;20006;-36
2021/09/02 09:31:42;;;;;;;;;;;;;;;18.85;65.91;102785.56;5076064;28;19912;-36
2021/09/02 09:34:07;;;;;;;;;;;;;;;18.87;65.57;102780.66;5074911;28;19916;-35
2021/09/02 09:36:34;;;;;;;;;;;;;;;18.88;65.59;102780.41;5074226;28;19915;-36
2021/09/02 09:39:01;;;;;;;;;;;;;;;18.91;65.59;102776.38;5074776;28;19914;-36
2021/09/02 09:41:52;;;;;;;;;;;;;;;19.09;66.88;102770.75;5075265;28;19952;-36
2021/09/02 09:44:21;;;;;;;;;;;;;;;19.59;64.96;102774.75;5032823;28;19916;-36
2021/09/02 09:47:01;;;;;;;;;;;;;;;19.79;64.07;102772.44;5032643;28;20003;-35
2021/09/02 09:49:39;;;;;;;;;;;;;;;19.96;62.72;102773.31;5032394;28;20004;-36
2021/09/02 09:52:15;;;;;;;;;;;;;;;20.16;62.31;102772.84;5031964;28;19909;-36
2021/09/02 09:54:40;;;;;;;;;;;;;;;20.04;62.41;102770.13;5032318;28;19909;-36
2021/09/02 09:57:06;;;;;;;;;;;;;;;19.94;63.41;102763.66;5032518;28;20008;-36
2021/09/02 09:59:31;;;;;;;;;;;;;;;19.91;63.65;102775.97;5032168;28;19909;-36
2021/09/02 10:01:56;;;;;;;;;;;;;;;19.87;63.13;102773.97;5032594;28;20334;-36
2021/09/02 10:04:21;;;;;;;;;;;;;;;19.80;61.83;102769.44;5032524;28;20007;-36
2021/09/02 10:06:47;;;;;;;;;;;;;;;19.75;64.33;102769.34;5032295;28;20004;-36
2021/09/02 10:09:12;;;;;;;;;;;;;;;19.70;63.40;102769.25;5032107;28;19919;-36
2021/09/02 10:11:38;;;;;;;;;;;;;;;19.70;63.32;102762.94;5032687;28;19920;-36
2021/09/02 10:14:03;;;;;;;;;;;;;;;19.63;63.97;102762.25;5032165;28;20011;-36
2021/09/02 10:16:28;;;;;;;;;;;;;;;19.62;64.08;102763.31;5032327;28;20311;-36
2021/09/02 10:18:55;;;;;;;;;;;;;;;19.59;63.24;102758.31;5031784;28;19955;-36
2021/09/02 10:21:21;;;;;;;;;;;;;;;19.52;62.42;102758.44;5057947;28;19996;-35
2021/09/02 10:23:47;;;;;;;;;;;;;;;19.45;62.91;102753.09;5074007;28;20356;-36
2021/09/02 10:26:32;;;;;;;;;;;;;;;19.43;62.81;102763.50;5074110;28;19912;-36
2021/09/02 10:28:57;;;;;;;;;;;;;;;19.48;63.46;102754.53;5074587;28;19908;-35
2021/09/02 10:31:23;;;;;;;;;;;;;;;19.55;63.23;102756.03;5074421;28;19953;-36
2021/09/02 10:33:48;;;;;;;;;;;;;;;19.60;64.21;102755.34;5074369;28;19961;-36
2021/09/02 10:36:13;;;;;;;;;;;;;;;19.67;64.71;102746.97;5072510;28;19908;-36
2021/09/02 10:38:41;;;;;;;;;;;;;;;19.99;64.84;102744.50;5073505;28;19915;-36
2021/09/02 10:41:07;;;;;;;;;;;;;;;20.37;62.30;102745.69;5074305;28;20264;-36
2021/09/02 10:43:43;;;;;;;;;;;;;;;20.38;59.52;102747.34;5073419;28;19919;-36
2021/09/02 10:46:22;;;;;;;;;;;;;;;20.33;60.69;102750.84;5073704;28;19916;-36
2021/09/02 10:48:47;;;;;;;;;;;;;;;20.32;60.93;102749.19;5074010;28;20019;-36
2021/09/02 10:51:42;;;;;;;;;;;;;;;20.39;61.50;102741.59;5073664;28;20344;-35
2021/09/02 10:54:08;;;;;;;;;;;;;;;20.45;62.59;102737.03;5031964;28;20253;-36
2021/09/02 10:56:49;;;;;;;;;;;;;;;20.69;62.38;102727.53;5031704;28;19909;-36
2021/09/02 10:59:33;;;;;;;;;;;;;;;20.87;59.54;102729.13;5031920;28;19972;-36
2021/09/02 11:01:58;;;;;;;;;;;;;;;20.99;61.76;102731.78;5031401;28;19915;-36
2021/09/02 11:04:24;;;;;;;;;;;;;;;20.99;59.98;102737.28;5031160;28;20232;-36
2021/09/02 11:06:49;;;;;;;;;;;;;;;20.96;62.23;102729.53;5031102;28;19909;-36
2021/09/02 11:09:34;;;;;;;;;;;;;;;21.02;62.24;102728.50;5030997;28;19909;-36
2021/09/02 11:12:00;;;;;;;;;;;;;;;21.16;57.93;102743.53;5031098;28;19913;-36
2021/09/02 11:14:26;;;;;;;;;;;;;;;20.97;59.60;102732.00;5030993;28;19909;-36
2021/09/02 11:16:51;;;;;;;;;;;;;;;20.91;59.80;102729.44;5031495;28;19909;-36
2021/09/02 11:19:29;;;;;;;;;;;;;;;20.78;58.38;102730.66;5031458;28;20004;-36
2021/09/02 11:21:55;;;;;;;;;;;;;;;20.60;60.07;102729.03;5030855;28;19909;-36
2021/09/02 11:24:20;;;;;;;;;;;;;;;20.65;60.34;102731.88;5030988;28;19909;-36
2021/09/02 11:26:49;;;;;;;;;;;;;;;21.01;61.08;102730.41;5030945;28;20027;-36
2021/09/02 11:29:21;;;;;;;;;;;;;;;21.44;58.54;102722.41;5031624;28;19916;-36
2021/09/02 11:32:07;;;;;;;;;;;;;;;21.69;60.08;102722.69;5073146;28;20270;-36
2021/09/02 11:34:32;;;;;;;;;;;;;;;21.93;58.10;102714.91;5072156;28;19939;-36
2021/09/02 11:36:58;;;;;;;;;;;;;;;22.05;59.18;102717.47;5073094;28;19979;-36
2021/09/02 11:39:30;;;;;;;;;;;;;;;21.84;55.70;102711.81;5073178;28;19909;-35
2021/09/02 11:42:21;;;;;;;;;;;;;;;21.97;58.00;102710.53;5073406;28;19944;-36
2021/09/02 11:44:47;;;;;;;;;;;;;;;22.00;57.59;102715.50;5071552;28;19912;-35
2021/09/02 11:47:12;;;;;;;;;;;;;;;21.96;55.19;102711.66;5073350;28;20409;-35
2021/09/02 11:49:39;;;;;;;;;;;;;;;21.79;57.01;102711.75;5073007;28;19908;-35
2021/09/02 11:52:05;;;;;;;;;;;;;;;21.65;56.75;102705.00;5073025;28;19915;-35
2021/09/02 11:54:31;;;;;;;;;;;;;;;21.68;56.74;102710.00;5072749;28;19916;-35
2021/09/02 11:56:57;;;;;;;;;;;;;;;21.80;57.78;102691.38;5072558;28;19978;-35
2021/09/02 11:59:22;;;;;;;;;;;;;;;21.74;56.91;102694.38;5073374;28;19983;-36
2021/09/02 12:01:48;;;;;;;;;;;;;;;21.51;57.19;102685.31;5073193;28;19908;-35
2021/09/02 12:04:16;;;;;;;;;;;;;;;21.32;57.37;102682.09;5072795;28;20324;-35
2021/09/02 12:06:43;;;;;;;;;;;;;;;21.21;56.69;102690.47;5073387;28;19914;-35
2021/09/02 12:09:08;;;;;;;;;;;;;;;21.17;57.81;102689.34;5072787;28;20241;-36
2021/09/02 12:11:34;;;;;;;;;;;;;;;21.17;58.38;102690.16;5073524;28;19977;-36
2021/09/02 12:14:13;;;;;;;;;;;;;;;21.27;58.07;102690.28;5073117;28;19916;-35
2021/09/02 12:16:40;;;;;;;;;;;;;;;21.33;56.92;102691.22;5075296;28;19908;-35
2021/09/02 12:19:05;;;;;;;;;;;;;;;21.38;58.70;102683.00;5076018;28;20267;-36
2021/09/02 12:21:31;;;;;;;;;;;;;;;21.69;57.26;102675.88;5076666;28;19908;-35
2021/09/02 12:23:56;;;;;;;;;;;;;;;21.81;55.28;102679.31;5076212;28;20053;-35
2021/09/02 12:26:23;;;;;;;;;;;;;;;21.23;54.00;102680.06;5076501;28;20014;-36
2021/09/02 12:28:50;;;;;;;;;;;;;;;21.22;55.83;102681.13;5076763;28;20357;-36
2021/09/02 12:31:18;;;;;;;;;;;;;;;21.24;54.27;102685.31;5076645;28;19966;-35